createdAt,value
2018-05-10T00:01:29.664Z,19.98
2018-05-10T00:03:58.089Z,19.91
2018-05-10T00:06:26.305Z,19.84
2018-05-10T00:08:55.812Z,19.69
2018-05-10T00:11:24.001Z,19.75
2018-05-10T00:13:52.744Z,19.66
2018-05-10T00:16:20.960Z,19.67
2018-05-10T00:18:49.189Z,19.76
2018-05-10T00:21:17.854Z,19.69
2018-05-10T00:23:46.075Z,19.60
2018-05-10T00:26:14.395Z,19.57
2018-05-10T00:28:42.971Z,19.46
2018-05-10T00:31:11.173Z,19.41
2018-05-10T00:33:39.388Z,19.45
2018-05-10T00:36:08.065Z,19.45
2018-05-10T00:38:36.299Z,19.46
2018-05-10T00:41:04.622Z,19.44
2018-05-10T00:43:33.331Z,19.44
2018-05-10T00:46:01.525Z,19.45
2018-05-10T00:48:29.765Z,19.42
2018-05-10T00:50:58.498Z,19.39
2018-05-10T00:53:26.718Z,19.42
2018-05-10T00:55:54.941Z,19.35
2018-05-10T00:58:23.706Z,19.24
2018-05-10T01:00:51.908Z,19.18
2018-05-10T01:03:20.142Z,19.08
2018-05-10T01:05:48.871Z,19.09
2018-05-10T01:08:17.044Z,19.07
2018-05-10T01:10:45.797Z,19.06
2018-05-10T01:13:14.372Z,19.05
2018-05-10T01:15:42.575Z,19.03
2018-05-10T01:18:10.955Z,18.96
2018-05-10T01:20:39.626Z,18.91
2018-05-10T01:23:07.836Z,18.83
2018-05-10T01:25:36.183Z,18.81
2018-05-10T01:28:04.649Z,18.79
2018-05-10T01:30:32.887Z,18.77
2018-05-10T01:33:01.203Z,18.74
2018-05-10T01:35:41.079Z,18.80
2018-05-10T01:38:09.291Z,18.83
2018-05-10T01:40:37.476Z,18.82
2018-05-10T01:43:05.715Z,18.75
2018-05-10T01:45:34.390Z,18.68
2018-05-10T01:48:02.615Z,18.62
2018-05-10T01:50:30.816Z,18.60
2018-05-10T01:52:59.597Z,18.56
2018-05-10T01:55:27.798Z,18.53
2018-05-10T01:57:56.016Z,18.45
2018-05-10T02:00:24.686Z,18.45
2018-05-10T02:02:52.879Z,18.35
2018-05-10T02:05:21.072Z,18.35
2018-05-10T02:07:49.761Z,18.20
2018-05-10T02:10:18.012Z,18.21
2018-05-10T02:12:46.241Z,18.14
2018-05-10T02:15:15.746Z,18.09
2018-05-10T02:17:44.012Z,17.93
2018-05-10T02:20:12.202Z,17.88
2018-05-10T02:22:41.057Z,17.79
2018-05-10T02:25:09.280Z,17.71
2018-05-10T02:27:55.595Z,17.63
2018-05-10T02:30:26.171Z,17.57
2018-05-10T02:32:54.402Z,17.51
2018-05-10T02:35:22.617Z,17.37
2018-05-10T02:37:51.304Z,17.35
2018-05-10T02:40:19.539Z,17.34
2018-05-10T02:42:47.730Z,17.30
2018-05-10T02:45:16.416Z,17.23
2018-05-10T02:47:44.680Z,17.24
2018-05-10T02:50:12.872Z,17.14
2018-05-10T02:52:41.646Z,17.14
2018-05-10T02:55:09.879Z,17.14
2018-05-10T02:57:38.058Z,17.07
2018-05-10T03:00:06.744Z,17.09
2018-05-10T03:02:34.985Z,16.99
2018-05-10T03:05:03.190Z,16.98
2018-05-10T03:07:31.912Z,16.97
2018-05-10T03:10:00.122Z,16.99
2018-05-10T03:12:28.326Z,16.86
2018-05-10T03:14:57.214Z,16.85
2018-05-10T03:17:25.446Z,16.82
2018-05-10T03:19:53.636Z,16.86
2018-05-10T03:22:22.316Z,16.86
2018-05-10T03:24:50.529Z,16.83
2018-05-10T03:27:18.732Z,16.79
2018-05-10T03:29:47.396Z,16.68
2018-05-10T03:32:15.624Z,16.65
2018-05-10T03:34:43.829Z,16.57
2018-05-10T03:37:12.472Z,16.53
2018-05-10T03:39:40.723Z,16.45
2018-05-10T03:42:08.927Z,16.35
2018-05-10T03:44:37.825Z,16.28
2018-05-10T03:47:06.068Z,16.26
2018-05-10T03:49:34.277Z,16.22
2018-05-10T03:52:02.959Z,16.13
2018-05-10T03:54:31.208Z,16.01
2018-05-10T03:56:59.395Z,16.05
2018-05-10T03:59:28.173Z,16.12
2018-05-10T04:01:56.405Z,16.08
2018-05-10T04:04:36.365Z,16.01
2018-05-10T04:07:16.509Z,16.03
2018-05-10T04:09:56.635Z,16.02
2018-05-10T04:12:24.871Z,15.96
2018-05-10T04:14:53.700Z,15.88
2018-05-10T04:17:21.897Z,15.91
2018-05-10T04:19:50.169Z,15.84
2018-05-10T04:22:18.923Z,15.81
2018-05-10T04:24:47.131Z,15.83
2018-05-10T04:27:15.348Z,15.82
2018-05-10T04:29:43.787Z,15.84
2018-05-10T04:32:12.015Z,15.87
2018-05-10T04:34:40.399Z,15.85
2018-05-10T04:37:08.985Z,15.79
2018-05-10T04:39:37.178Z,15.78
2018-05-10T04:42:06.552Z,15.72
2018-05-10T04:44:34.868Z,15.81
2018-05-10T04:47:03.583Z,15.82
2018-05-10T04:49:31.818Z,15.78
2018-05-10T04:51:59.993Z,15.80
2018-05-10T04:54:28.790Z,15.70
2018-05-10T04:56:56.983Z,15.66
2018-05-10T04:59:25.336Z,15.59
2018-05-10T05:01:54.039Z,15.61
2018-05-10T05:04:22.279Z,15.67
2018-05-10T05:06:50.468Z,15.50
2018-05-10T05:09:19.255Z,15.51
2018-05-10T05:11:47.497Z,15.46
2018-05-10T05:14:15.728Z,15.47
2018-05-10T05:16:44.338Z,15.39
2018-05-10T05:19:12.542Z,15.44
2018-05-10T05:21:40.766Z,15.41
2018-05-10T05:24:09.552Z,15.47
2018-05-10T05:26:37.769Z,15.49
2018-05-10T05:29:06.009Z,15.49
2018-05-10T05:31:34.773Z,15.47
2018-05-10T05:34:02.974Z,15.54
2018-05-10T05:36:31.291Z,15.68
2018-05-10T05:38:59.861Z,15.62
2018-05-10T05:41:28.108Z,15.77
2018-05-10T05:43:56.327Z,15.80
2018-05-10T05:46:25.040Z,15.69
2018-05-10T05:48:53.224Z,15.86
2018-05-10T05:51:21.462Z,15.94
2018-05-10T05:53:50.264Z,16.06
2018-05-10T05:56:18.469Z,16.19
2018-05-10T05:58:46.735Z,16.27
2018-05-10T06:01:15.430Z,16.35
2018-05-10T06:03:43.694Z,16.40
2018-05-10T06:06:11.939Z,16.53
2018-05-10T06:08:40.654Z,16.71
2018-05-10T06:11:08.874Z,16.63
2018-05-10T06:13:37.108Z,16.57
2018-05-10T06:16:05.899Z,16.60
2018-05-10T06:18:34.084Z,16.66
2018-05-10T06:21:02.267Z,16.68
2018-05-10T06:23:31.053Z,16.78
2018-05-10T06:25:59.267Z,16.76
2018-05-10T06:28:27.489Z,16.80
2018-05-10T06:30:56.254Z,16.84
2018-05-10T06:33:24.464Z,16.79
2018-05-10T06:35:52.651Z,16.81
2018-05-10T06:38:21.374Z,16.82
2018-05-10T06:40:49.598Z,16.78
2018-05-10T06:43:17.809Z,16.77
2018-05-10T06:45:46.625Z,16.74
2018-05-10T06:48:14.817Z,16.85
2018-05-10T06:50:43.025Z,16.88
2018-05-10T06:53:11.754Z,16.97
2018-05-10T06:55:39.930Z,17.01
2018-05-10T06:58:08.114Z,17.05
2018-05-10T07:00:36.918Z,16.90
2018-05-10T07:03:05.095Z,17.07
2018-05-10T07:05:33.322Z,17.09
2018-05-10T07:08:02.179Z,17.15
2018-05-10T07:10:30.518Z,17.09
2018-05-10T07:12:59.175Z,17.28
2018-05-10T07:15:27.820Z,17.25
2018-05-10T07:17:56.058Z,17.25
2018-05-10T07:20:24.378Z,17.27
2018-05-10T07:23:13.824Z,17.23
2018-05-10T07:25:49.240Z,17.20
2018-05-10T07:28:17.451Z,17.26
2018-05-10T07:30:45.676Z,17.34
2018-05-10T07:33:13.995Z,17.41
2018-05-10T07:35:42.786Z,17.50
2018-05-10T07:38:11.002Z,17.45
2018-05-10T07:40:39.184Z,17.56
2018-05-10T07:43:07.998Z,17.37
2018-05-10T07:45:36.194Z,17.31
2018-05-10T07:48:04.479Z,17.26
2018-05-10T07:50:33.195Z,17.29
2018-05-10T07:53:01.371Z,17.43
2018-05-10T07:55:29.548Z,17.61
2018-05-10T07:57:58.270Z,17.60
2018-05-10T08:00:26.479Z,17.78
2018-05-10T08:02:54.690Z,17.91
2018-05-10T08:05:23.339Z,17.93
2018-05-10T08:07:51.559Z,17.91
2018-05-10T08:10:19.739Z,17.91
2018-05-10T08:12:48.535Z,18.07
2018-05-10T08:15:16.753Z,18.08
2018-05-10T08:17:45.348Z,17.96
2018-05-10T08:20:14.211Z,18.04
2018-05-10T08:22:42.441Z,17.94
2018-05-10T08:25:10.762Z,18.00
2018-05-10T08:27:47.636Z,18.06
2018-05-10T08:30:16.085Z,18.03
2018-05-10T08:32:44.566Z,17.92
2018-05-10T08:35:12.799Z,17.83
2018-05-10T08:37:40.980Z,17.71
2018-05-10T08:40:09.671Z,17.74
2018-05-10T08:42:37.837Z,17.68
2018-05-10T08:45:06.172Z,17.67
2018-05-10T08:47:34.759Z,17.70
2018-05-10T08:50:02.968Z,17.77
2018-05-10T08:52:31.361Z,17.82
2018-05-10T08:54:59.875Z,17.75
2018-05-10T08:57:28.060Z,17.86
2018-05-10T08:59:56.528Z,17.97
2018-05-10T09:02:25.086Z,18.18
2018-05-10T09:04:53.319Z,18.33
2018-05-10T09:07:21.777Z,18.29
2018-05-10T09:09:50.313Z,18.50
2018-05-10T09:12:18.522Z,18.56
2018-05-10T09:14:46.868Z,18.61
2018-05-10T09:17:15.478Z,18.26
2018-05-10T09:19:43.691Z,18.25
2018-05-10T09:22:12.105Z,18.39
2018-05-10T09:24:40.727Z,18.23
2018-05-10T09:27:10.129Z,18.24
2018-05-10T09:29:38.316Z,18.06
2018-05-10T09:32:06.554Z,17.89
2018-05-10T09:34:35.239Z,17.77
2018-05-10T09:37:03.403Z,17.76
2018-05-10T09:39:31.909Z,17.68
2018-05-10T09:42:00.385Z,17.75
2018-05-10T09:44:28.542Z,17.61
2018-05-10T09:46:56.814Z,17.54
2018-05-10T09:49:25.634Z,17.75
2018-05-10T09:51:53.819Z,17.87
2018-05-10T09:54:22.379Z,18.10
2018-05-10T09:56:50.689Z,17.95
2018-05-10T09:59:18.880Z,17.99
2018-05-10T10:01:47.180Z,17.96
2018-05-10T10:04:15.917Z,17.81
2018-05-10T10:06:44.100Z,17.79
2018-05-10T10:09:12.297Z,17.79
2018-05-10T10:11:41.515Z,17.97
2018-05-10T10:14:09.725Z,18.24
2018-05-10T10:16:38.285Z,18.22
2018-05-10T10:19:06.911Z,18.03
2018-05-10T10:21:35.207Z,18.07
2018-05-10T10:24:03.418Z,18.11
2018-05-10T10:26:32.004Z,17.83
2018-05-10T10:29:00.228Z,18.05
2018-05-10T10:31:28.551Z,17.98
2018-05-10T10:33:57.136Z,18.22
2018-05-10T10:36:25.350Z,18.16
2018-05-10T10:38:53.686Z,18.21
2018-05-10T10:41:23.935Z,18.09
2018-05-10T10:43:52.617Z,17.87
2018-05-10T10:46:20.838Z,17.65
2018-05-10T10:48:49.062Z,17.61
2018-05-10T10:51:17.805Z,17.43
2018-05-10T10:53:46.132Z,17.47
2018-05-10T10:56:14.261Z,17.41
2018-05-10T10:58:43.087Z,17.42
2018-05-10T11:01:11.335Z,17.18
2018-05-10T11:03:39.563Z,17.01
2018-05-10T11:06:08.159Z,16.95
2018-05-10T11:08:36.423Z,16.99
2018-05-10T11:11:04.662Z,16.89
2018-05-10T11:13:33.618Z,16.62
2018-05-10T11:16:02.568Z,16.65
2018-05-10T11:18:30.785Z,16.44
2018-05-10T11:20:59.012Z,16.48
2018-05-10T11:23:27.605Z,16.41
2018-05-10T11:25:55.812Z,16.52
2018-05-10T11:28:24.052Z,16.53
2018-05-10T11:30:52.869Z,16.17
2018-05-10T11:33:27.965Z,16.19
2018-05-10T11:35:56.194Z,16.20
2018-05-10T11:38:24.405Z,16.00
2018-05-10T11:40:53.100Z,16.11
2018-05-10T11:43:21.314Z,16.15
2018-05-10T11:45:49.675Z,16.26
2018-05-10T11:48:18.353Z,16.26
2018-05-10T11:50:46.551Z,16.35
2018-05-10T11:53:14.824Z,16.33
2018-05-10T11:55:43.515Z,16.44
2018-05-10T11:58:11.718Z,16.34
2018-05-10T12:00:46.543Z,16.50
2018-05-10T12:03:14.898Z,16.61
2018-05-10T12:05:43.631Z,16.55
2018-05-10T12:08:12.501Z,16.61
2018-05-10T12:42:17.832Z,16.79
2018-05-10T12:44:46.360Z,16.87
2018-05-10T12:47:15.247Z,16.92
2018-05-10T12:49:43.364Z,16.89
2018-05-10T12:52:11.572Z,17.14
2018-05-10T12:54:40.291Z,17.36
2018-05-10T12:57:08.465Z,17.42
2018-05-10T12:59:36.662Z,17.51
2018-05-10T13:02:05.427Z,17.62
2018-05-10T13:04:33.642Z,17.56
2018-05-10T13:07:01.872Z,17.61
2018-05-10T13:09:30.563Z,17.72
2018-05-10T13:11:58.771Z,17.78
2018-05-10T13:14:27.465Z,17.86
2018-05-10T13:16:56.138Z,18.04
2018-05-10T13:19:24.434Z,18.09
2018-05-10T13:21:53.237Z,18.10
2018-05-10T13:24:22.035Z,18.19
2018-05-10T13:26:50.243Z,18.19
2018-05-10T13:29:18.582Z,18.29
2018-05-10T13:31:47.393Z,18.34
2018-05-10T13:34:16.401Z,18.22
2018-05-10T13:36:44.609Z,18.08
2018-05-10T13:39:13.442Z,18.06
2018-05-10T13:41:42.331Z,18.21
2018-05-10T13:44:10.573Z,18.21
2018-05-10T13:46:38.813Z,18.19
2018-05-10T13:49:07.795Z,18.16
2018-05-10T13:51:36.476Z,18.28
2018-05-10T13:54:04.704Z,18.40
2018-05-10T13:56:33.465Z,18.37
2018-05-10T13:59:02.508Z,18.43
2018-05-10T14:01:31.401Z,18.24
2018-05-10T14:03:59.586Z,17.99
2018-05-10T14:06:28.411Z,18.03
2018-05-10T14:08:57.322Z,17.88
2018-05-10T14:11:25.542Z,18.07
2018-05-10T14:13:53.726Z,18.19
2018-05-10T14:16:22.378Z,18.41
2018-05-10T14:18:50.793Z,18.70
2018-05-10T14:21:18.990Z,18.95
2018-05-10T14:23:47.747Z,19.22
2018-05-10T14:26:16.430Z,19.42
2018-05-10T14:28:44.680Z,19.56
2018-05-10T14:31:13.446Z,19.77
2018-05-10T14:33:42.460Z,20.16
2018-05-10T14:36:11.370Z,20.44
2018-05-10T14:38:39.592Z,20.65
2018-05-10T14:41:08.375Z,21.20
2018-05-10T14:43:36.845Z,22.03
2018-05-10T14:46:05.072Z,22.07
2018-05-10T14:48:33.376Z,22.67
2018-05-10T14:51:02.033Z,23.07
2018-05-10T14:53:30.252Z,22.80
2018-05-10T14:55:58.543Z,22.57
2018-05-10T14:58:27.051Z,22.36
2018-05-10T15:00:55.250Z,22.31
2018-05-10T15:03:23.706Z,22.14
2018-05-10T15:05:52.311Z,21.74
2018-05-10T15:08:20.597Z,21.83
2018-05-10T15:10:48.924Z,21.91
2018-05-10T15:13:17.475Z,21.70
2018-05-10T15:15:45.672Z,21.62
2018-05-10T15:18:13.841Z,21.47
2018-05-10T15:20:42.588Z,21.65
2018-05-10T15:23:10.793Z,21.66
2018-05-10T15:25:39.044Z,21.85
2018-05-10T15:28:07.759Z,21.64
2018-05-10T15:30:36.127Z,21.73
2018-05-10T15:33:04.600Z,21.80
2018-05-10T15:35:33.464Z,21.88
2018-05-10T15:38:01.634Z,21.61
2018-05-10T15:40:29.835Z,21.63
2018-05-10T15:42:59.096Z,21.56
2018-05-10T15:45:27.282Z,21.27
2018-05-10T15:47:55.733Z,21.28
2018-05-10T15:50:24.223Z,21.18
2018-05-10T15:52:52.390Z,20.99
2018-05-10T15:55:20.867Z,20.98
2018-05-10T15:57:49.469Z,20.85
2018-05-10T16:00:17.656Z,20.81
2018-05-10T16:02:46.013Z,20.68
2018-05-10T16:05:14.544Z,20.57
2018-05-10T16:07:42.729Z,20.50
2018-05-10T16:10:11.528Z,20.41
2018-05-10T16:12:40.147Z,20.51
2018-05-10T16:15:08.530Z,20.52
2018-05-10T16:17:37.298Z,20.48
2018-05-10T16:20:05.780Z,20.43
2018-05-10T16:22:33.994Z,20.20
2018-05-10T16:25:02.473Z,20.03
2018-05-10T16:27:31.036Z,19.90
2018-05-10T16:29:59.250Z,19.94
2018-05-10T16:32:27.584Z,19.90
2018-05-10T16:34:56.160Z,19.84
2018-05-10T16:37:24.367Z,19.83
2018-05-10T16:40:01.823Z,19.89
2018-05-10T16:42:31.284Z,19.68
2018-05-10T16:44:59.518Z,19.60
2018-05-10T16:47:27.823Z,19.69
2018-05-10T16:49:56.459Z,19.74
2018-05-10T16:52:24.643Z,19.56
2018-05-10T16:54:52.832Z,19.51
2018-05-10T16:57:21.572Z,19.45
2018-05-10T16:59:49.796Z,19.42
2018-05-10T17:02:18.124Z,19.43
2018-05-10T17:04:47.100Z,19.55
2018-05-10T17:07:15.324Z,19.64
2018-05-10T17:09:43.826Z,19.71
2018-05-10T17:12:12.504Z,19.75
2018-05-10T17:14:40.694Z,19.57
2018-05-10T17:17:09.062Z,19.63
2018-05-10T17:19:37.621Z,19.54
2018-05-10T17:22:05.822Z,19.55
2018-05-10T17:24:34.189Z,19.46
2018-05-10T17:27:02.856Z,19.34
2018-05-10T17:29:31.029Z,19.19
2018-05-10T17:31:59.421Z,19.04
2018-05-10T17:34:28.006Z,19.03
2018-05-10T17:36:56.217Z,18.92
2018-05-10T17:39:24.501Z,18.91
2018-05-10T17:41:53.125Z,18.84
2018-05-10T17:44:21.311Z,18.76
2018-05-10T17:46:49.830Z,18.79
2018-05-10T17:49:18.311Z,18.81
2018-05-10T17:51:46.641Z,18.80
2018-05-10T17:54:15.281Z,18.69
2018-05-10T17:56:43.754Z,18.66
2018-05-10T17:59:11.947Z,18.60
2018-05-10T18:01:40.980Z,18.49
2018-05-10T18:04:09.837Z,18.41
2018-05-10T18:06:38.892Z,18.37
2018-05-10T18:09:07.055Z,18.33
2018-05-10T18:11:36.268Z,18.29
2018-05-10T18:14:05.192Z,18.30
2018-05-10T18:16:33.930Z,18.29
2018-05-10T18:19:02.132Z,18.20
2018-05-10T18:21:31.080Z,18.25
2018-05-10T18:23:59.961Z,18.27
2018-05-10T18:26:29.006Z,18.18
2018-05-10T18:28:57.175Z,18.19
2018-05-10T18:31:26.099Z,18.13
2018-05-10T18:33:54.919Z,18.17
2018-05-10T18:36:23.510Z,18.12
2018-05-10T18:38:53.148Z,18.09
2018-05-10T18:41:21.376Z,18.04
2018-05-10T18:43:50.180Z,18.04
2018-05-10T18:46:18.437Z,18.00
2018-05-10T18:48:46.624Z,17.92
2018-05-10T18:51:15.632Z,17.95
2018-05-10T18:53:44.349Z,17.83
2018-05-10T18:56:12.564Z,17.76
2018-05-10T18:58:41.393Z,17.68
2018-05-10T19:01:10.250Z,17.69
2018-05-10T19:03:39.250Z,17.56
2018-05-10T19:06:07.506Z,17.51
2018-05-10T19:08:36.403Z,17.41
2018-05-10T19:11:05.837Z,17.34
2018-05-10T19:13:34.277Z,17.31
2018-05-10T19:16:03.107Z,17.30
2018-05-10T19:18:31.555Z,17.25
2018-05-10T19:21:00.485Z,17.18
2018-05-10T19:23:29.372Z,17.12
2018-05-10T19:25:57.576Z,17.09
2018-05-10T19:28:26.399Z,17.09
2018-05-10T19:30:55.390Z,16.92
2018-05-10T19:33:24.429Z,16.89
2018-05-10T19:35:52.621Z,16.89
2018-05-10T19:38:21.437Z,16.90
2018-05-10T19:40:50.406Z,16.81
2018-05-10T19:43:18.758Z,16.74
2018-05-10T19:45:46.934Z,16.74
2018-05-10T19:48:15.832Z,16.67
2018-05-10T19:50:44.409Z,16.66
2018-05-10T19:53:12.628Z,16.69
2018-05-10T19:55:41.465Z,16.62
2018-05-10T19:58:10.329Z,16.54
2018-05-10T20:00:39.356Z,16.55
2018-05-10T20:03:07.524Z,16.49
2018-05-10T20:05:36.409Z,16.46
2018-05-10T20:08:05.447Z,16.42
2018-05-10T20:10:34.401Z,16.42
2018-05-10T20:13:02.774Z,16.34
2018-05-10T20:15:31.503Z,16.28
2018-05-10T20:18:00.318Z,16.31
2018-05-10T20:20:28.545Z,16.17
2018-05-10T20:22:56.730Z,16.14
2018-05-10T20:25:25.430Z,16.08
2018-05-10T20:27:54.427Z,16.08
2018-05-10T20:30:22.595Z,15.98
2018-05-10T20:32:50.799Z,15.98
2018-05-10T20:35:19.596Z,15.96
2018-05-10T20:37:47.782Z,15.98
2018-05-10T20:40:16.707Z,15.82
2018-05-10T20:42:45.786Z,15.82
2018-05-10T20:45:14.686Z,15.79
2018-05-10T20:47:42.873Z,15.80
2018-05-10T20:50:11.722Z,15.83
2018-05-10T20:52:40.211Z,15.78
2018-05-10T20:55:08.479Z,15.69
2018-05-10T20:57:36.831Z,15.62
2018-05-10T21:00:05.336Z,15.61
2018-05-10T21:02:33.530Z,15.59
2018-05-10T21:05:01.950Z,15.49
2018-05-10T21:07:30.556Z,15.45
2018-05-10T21:09:58.792Z,15.34
2018-05-10T21:12:47.925Z,15.34
2018-05-10T21:15:16.419Z,15.18
2018-05-10T21:17:45.215Z,15.20
2018-05-10T21:20:13.390Z,15.22
2018-05-10T21:22:41.633Z,15.16
2018-05-10T21:25:10.334Z,15.16
2018-05-10T21:27:38.504Z,15.13
2018-05-10T21:30:07.029Z,14.93
2018-05-10T21:32:35.225Z,14.98
2018-05-10T21:35:04.603Z,14.87
2018-05-10T21:37:33.221Z,14.82
2018-05-10T21:40:01.908Z,14.80
2018-05-10T21:42:30.128Z,14.84
2018-05-10T21:44:58.422Z,14.78
2018-05-10T21:47:26.974Z,14.75
2018-05-10T21:50:04.868Z,14.77
2018-05-10T21:52:33.696Z,14.70
2018-05-10T21:55:02.322Z,14.59
2018-05-10T21:57:30.465Z,14.56
2018-05-10T21:59:58.728Z,14.46
2018-05-10T22:02:27.425Z,14.34
2018-05-10T22:04:55.613Z,14.23
2018-05-10T22:07:23.979Z,14.27
2018-05-10T22:09:52.548Z,14.18
2018-05-10T22:12:20.797Z,14.22
2018-05-10T22:14:49.205Z,14.21
2018-05-10T22:17:17.773Z,14.14
2018-05-10T22:19:46.040Z,14.15
2018-05-10T22:22:14.375Z,14.13
2018-05-10T22:24:42.850Z,14.10
2018-05-10T22:27:11.031Z,14.08
2018-05-10T22:29:39.397Z,14.04
2018-05-10T22:32:08.063Z,14.09
2018-05-10T22:34:36.252Z,13.96
2018-05-10T22:37:04.631Z,13.95
2018-05-10T22:39:33.199Z,13.94
2018-05-10T22:42:01.421Z,13.93
2018-05-10T22:44:29.831Z,13.88
2018-05-10T22:46:58.387Z,13.86
2018-05-10T22:49:26.642Z,13.75
2018-05-10T22:51:54.906Z,13.79
2018-05-10T22:54:23.537Z,13.84
2018-05-10T22:56:51.721Z,13.78
2018-05-10T22:59:20.134Z,13.75
2018-05-10T23:01:48.748Z,13.74
2018-05-10T23:04:17.007Z,13.72
2018-05-10T23:06:45.362Z,13.73
2018-05-10T23:09:13.965Z,13.69
2018-05-10T23:11:42.140Z,13.71
2018-05-10T23:14:10.599Z,13.67
2018-05-10T23:16:39.169Z,13.63
2018-05-10T23:19:07.383Z,13.56
2018-05-10T23:21:35.732Z,13.57
2018-05-10T23:24:04.345Z,13.54
2018-05-10T23:26:32.566Z,13.45
2018-05-10T23:29:00.965Z,13.49
2018-05-10T23:31:29.610Z,13.47
2018-05-10T23:33:57.787Z,13.42
2018-05-10T23:36:26.115Z,13.36
2018-05-10T23:38:54.687Z,13.36
2018-05-10T23:41:22.866Z,13.36
2018-05-10T23:43:51.227Z,13.35
2018-05-10T23:46:19.891Z,13.31
2018-05-10T23:48:48.151Z,13.28
2018-05-10T23:51:16.389Z,13.24
2018-05-10T23:53:45.078Z,13.30
2018-05-10T23:56:13.294Z,13.31
2018-05-10T23:58:41.628Z,13.27
